sensor_id;sensor_type;location;lat;lon;timestamp;temperature;humidity
65864;SHT30;52639;51.180;20.460;2023-02-27T00:03:34;-1.11;82.24
65864;SHT30;52639;51.180;20.460;2023-02-27T00:07:39;-1.12;81.86
65864;SHT30;52639;51.180;20.460;2023-02-27T00:11:42;-1.15;82.21
65864;SHT30;52639;51.180;20.460;2023-02-27T00:15:45;-1.16;82.45
65864;SHT30;52639;51.180;20.460;2023-02-27T00:19:48;-1.08;80.83
65864;SHT30;52639;51.180;20.460;2023-02-27T00:23:52;-1.02;80.66
65864;SHT30;52639;51.180;20.460;2023-02-27T00:27:55;-1.06;81.44
65864;SHT30;52639;51.180;20.460;2023-02-27T00:31:58;-1.09;82.30
65864;SHT30;52639;51.180;20.460;2023-02-27T00:36:01;-1.08;82.91
65864;SHT30;52639;51.180;20.460;2023-02-27T00:40:08;-1.08;83.25
65864;SHT30;52639;51.180;20.460;2023-02-27T00:44:11;-1.12;83.32
65864;SHT30;52639;51.180;20.460;2023-02-27T00:48:14;-1.09;83.66
65864;SHT30;52639;51.180;20.460;2023-02-27T00:52:17;-1.08;83.70
65864;SHT30;52639;51.180;20.460;2023-02-27T00:56:21;-1.06;84.11
65864;SHT30;52639;51.180;20.460;2023-02-27T01:00:25;-1.09;84.20
65864;SHT30;52639;51.180;20.460;2023-02-27T01:04:27;-1.12;84.39
65864;SHT30;52639;51.180;20.460;2023-02-27T01:08:30;-1.11;84.37
65864;SHT30;52639;51.180;20.460;2023-02-27T01:12:35;-1.16;84.57
65864;SHT30;52639;51.180;20.460;2023-02-27T01:16:41;-1.15;84.81
65864;SHT30;52639;51.180;20.460;2023-02-27T01:20:44;-1.13;85.56
65864;SHT30;52639;51.180;20.460;2023-02-27T01:24:46;-1.13;85.28
65864;SHT30;52639;51.180;20.460;2023-02-27T01:28:51;-1.15;85.05
65864;SHT30;52639;51.180;20.460;2023-02-27T01:32:54;-1.17;84.98
65864;SHT30;52639;51.180;20.460;2023-02-27T01:36:56;-1.15;85.52
65864;SHT30;52639;51.180;20.460;2023-02-27T01:40:59;-1.15;85.76
65864;SHT30;52639;51.180;20.460;2023-02-27T01:45:28;-1.16;85.29
65864;SHT30;52639;51.180;20.460;2023-02-27T01:49:32;-1.16;85.29
65864;SHT30;52639;51.180;20.460;2023-02-27T01:53:38;-1.17;85.18
65864;SHT30;52639;51.180;20.460;2023-02-27T01:57:44;-1.20;85.16
65864;SHT30;52639;51.180;20.460;2023-02-27T02:01:49;-1.20;85.32
65864;SHT30;52639;51.180;20.460;2023-02-27T02:05:54;-1.26;85.39
65864;SHT30;52639;51.180;20.460;2023-02-27T02:09:58;-1.26;85.79
65864;SHT30;52639;51.180;20.460;2023-02-27T02:14:01;-1.22;85.74
65864;SHT30;52639;51.180;20.460;2023-02-27T02:18:15;-1.28;85.60
65864;SHT30;52639;51.180;20.460;2023-02-27T02:22:47;-1.28;85.73
65864;SHT30;52639;51.180;20.460;2023-02-27T02:27:03;-1.32;85.91
65864;SHT30;52639;51.180;20.460;2023-02-27T02:31:37;-1.29;85.67
65864;SHT30;52639;51.180;20.460;2023-02-27T02:36:24;-1.32;85.75
65864;SHT30;52639;51.180;20.460;2023-02-27T02:40:37;-1.31;86.39
65864;SHT30;52639;51.180;20.460;2023-02-27T02:44:48;-1.31;86.20
65864;SHT30;52639;51.180;20.460;2023-02-27T02:49:02;-1.32;86.18
65864;SHT30;52639;51.180;20.460;2023-02-27T02:53:12;-1.35;85.95
65864;SHT30;52639;51.180;20.460;2023-02-27T02:57:20;-1.33;85.85
65864;SHT30;52639;51.180;20.460;2023-02-27T03:01:30;-1.35;85.90
65864;SHT30;52639;51.180;20.460;2023-02-27T03:05:36;-1.35;85.77
65864;SHT30;52639;51.180;20.460;2023-02-27T03:09:43;-1.35;85.82
65864;SHT30;52639;51.180;20.460;2023-02-27T03:13:51;-1.38;85.80
65864;SHT30;52639;51.180;20.460;2023-02-27T03:18:00;-1.39;85.89
65864;SHT30;52639;51.180;20.460;2023-02-27T03:22:05;-1.43;86.14
65864;SHT30;52639;51.180;20.460;2023-02-27T03:26:10;-1.43;86.08
65864;SHT30;52639;51.180;20.460;2023-02-27T03:30:21;-1.47;86.13
65864;SHT30;52639;51.180;20.460;2023-02-27T03:34:27;-1.46;86.13
65864;SHT30;52639;51.180;20.460;2023-02-27T03:38:35;-1.53;86.14
65864;SHT30;52639;51.180;20.460;2023-02-27T03:42:45;-1.54;86.28
65864;SHT30;52639;51.180;20.460;2023-02-27T03:46:50;-1.52;86.29
65864;SHT30;52639;51.180;20.460;2023-02-27T03:50:53;-1.56;86.32
65864;SHT30;52639;51.180;20.460;2023-02-27T03:55:00;-1.53;87.57
65864;SHT30;52639;51.180;20.460;2023-02-27T03:59:05;-1.52;87.36
65864;SHT30;52639;51.180;20.460;2023-02-27T04:03:10;-1.53;87.35
65864;SHT30;52639;51.180;20.460;2023-02-27T04:07:18;-1.53;87.16
65864;SHT30;52639;51.180;20.460;2023-02-27T04:11:34;-1.59;86.65
65864;SHT30;52639;51.180;20.460;2023-02-27T04:16:10;-1.60;86.71
65864;SHT30;52639;51.180;20.460;2023-02-27T04:20:42;-1.60;86.60
65864;SHT30;52639;51.180;20.460;2023-02-27T04:24:53;-1.60;86.62
65864;SHT30;52639;51.180;20.460;2023-02-27T04:29:03;-1.64;86.69
65864;SHT30;52639;51.180;20.460;2023-02-27T04:33:11;-1.63;86.75
65864;SHT30;52639;51.180;20.460;2023-02-27T04:37:21;-1.60;86.98
65864;SHT30;52639;51.180;20.460;2023-02-27T04:41:28;-1.56;87.12
65864;SHT30;52639;51.180;20.460;2023-02-27T04:45:35;-1.46;86.92
65864;SHT30;52639;51.180;20.460;2023-02-27T04:49:44;-1.47;86.77
65864;SHT30;52639;51.180;20.460;2023-02-27T04:53:54;-1.44;86.80
65864;SHT30;52639;51.180;20.460;2023-02-27T04:58:02;-1.39;86.91
65864;SHT30;52639;51.180;20.460;2023-02-27T05:02:09;-1.44;86.89
65864;SHT30;52639;51.180;20.460;2023-02-27T05:06:14;-1.39;87.45
65864;SHT30;52639;51.180;20.460;2023-02-27T05:10:23;-1.35;87.60
65864;SHT30;52639;51.180;20.460;2023-02-27T05:14:32;-1.31;87.17
65864;SHT30;52639;51.180;20.460;2023-02-27T05:18:37;-1.31;87.24
65864;SHT30;52639;51.180;20.460;2023-02-27T05:22:45;-1.29;86.86
65864;SHT30;52639;51.180;20.460;2023-02-27T05:27:09;-1.28;87.33
65864;SHT30;52639;51.180;20.460;2023-02-27T05:31:19;-1.25;87.59
65864;SHT30;52639;51.180;20.460;2023-02-27T05:35:28;-1.26;87.39
65864;SHT30;52639;51.180;20.460;2023-02-27T05:39:35;-1.28;87.05
65864;SHT30;52639;51.180;20.460;2023-02-27T05:43:43;-1.25;87.01
65864;SHT30;52639;51.180;20.460;2023-02-27T05:47:51;-1.26;86.81
65864;SHT30;52639;51.180;20.460;2023-02-27T05:51:58;-1.25;87.15
65864;SHT30;52639;51.180;20.460;2023-02-27T05:56:04;-1.20;87.05
65864;SHT30;52639;51.180;20.460;2023-02-27T06:00:13;-1.23;87.31
65864;SHT30;52639;51.180;20.460;2023-02-27T06:04:17;-1.19;87.91
65864;SHT30;52639;51.180;20.460;2023-02-27T06:08:21;-1.16;87.31
65864;SHT30;52639;51.180;20.460;2023-02-27T06:12:23;-1.11;87.20
65864;SHT30;52639;51.180;20.460;2023-02-27T06:16:28;-1.05;87.20
65864;SHT30;52639;51.180;20.460;2023-02-27T06:20:31;-0.93;87.28
65864;SHT30;52639;51.180;20.460;2023-02-27T06:24:34;-0.87;87.07
65864;SHT30;52639;51.180;20.460;2023-02-27T06:28:37;-0.79;86.94
65864;SHT30;52639;51.180;20.460;2023-02-27T06:32:42;-0.57;86.96
65864;SHT30;52639;51.180;20.460;2023-02-27T06:36:44;-0.48;86.37
65864;SHT30;52639;51.180;20.460;2023-02-27T06:40:49;-0.45;86.21
65864;SHT30;52639;51.180;20.460;2023-02-27T06:44:52;-0.30;86.47
65864;SHT30;52639;51.180;20.460;2023-02-27T06:48:57;-0.17;85.84
65864;SHT30;52639;51.180;20.460;2023-02-27T06:53:00;-0.17;85.84
65864;SHT30;52639;51.180;20.460;2023-02-27T06:57:03;-0.13;86.14
65864;SHT30;52639;51.180;20.460;2023-02-27T07:01:06;0.01;85.51
65864;SHT30;52639;51.180;20.460;2023-02-27T07:05:11;0.00;85.32
65864;SHT30;52639;51.180;20.460;2023-02-27T07:09:14;0.07;85.29
65864;SHT30;52639;51.180;20.460;2023-02-27T07:13:17;0.44;85.11
65864;SHT30;52639;51.180;20.460;2023-02-27T07:17:20;0.64;84.37
65864;SHT30;52639;51.180;20.460;2023-02-27T07:21:26;0.66;81.55
65864;SHT30;52639;51.180;20.460;2023-02-27T07:25:28;1.06;82.86
65864;SHT30;52639;51.180;20.460;2023-02-27T07:29:31;1.05;78.88
65864;SHT30;52639;51.180;20.460;2023-02-27T07:33:36;0.92;79.13
65864;SHT30;52639;51.180;20.460;2023-02-27T07:37:40;0.96;80.00
65864;SHT30;52639;51.180;20.460;2023-02-27T07:41:43;1.07;78.64
65864;SHT30;52639;51.180;20.460;2023-02-27T07:45:47;1.26;78.25
65864;SHT30;52639;51.180;20.460;2023-02-27T07:49:51;1.53;76.39
65864;SHT30;52639;51.180;20.460;2023-02-27T07:53:56;1.53;75.59
65864;SHT30;52639;51.180;20.460;2023-02-27T07:57:59;1.74;73.55
65864;SHT30;52639;51.180;20.460;2023-02-27T08:02:03;1.95;73.82
65864;SHT30;52639;51.180;20.460;2023-02-27T08:06:06;2.41;73.64
65864;SHT30;52639;51.180;20.460;2023-02-27T08:10:11;2.31;73.80
65864;SHT30;52639;51.180;20.460;2023-02-27T08:14:16;2.36;75.75
65864;SHT30;52639;51.180;20.460;2023-02-27T08:18:19;1.95;72.79
65864;SHT30;52639;51.180;20.460;2023-02-27T08:22:22;1.40;75.81
65864;SHT30;52639;51.180;20.460;2023-02-27T08:26:26;1.33;73.51
65864;SHT30;52639;51.180;20.460;2023-02-27T08:30:29;1.73;71.53
65864;SHT30;52639;51.180;20.460;2023-02-27T08:34:32;2.77;68.42
65864;SHT30;52639;51.180;20.460;2023-02-27T08:38:35;5.28;67.05
65864;SHT30;52639;51.180;20.460;2023-02-27T08:42:39;5.47;68.95
65864;SHT30;52639;51.180;20.460;2023-02-27T08:46:42;4.64;65.84
65864;SHT30;52639;51.180;20.460;2023-02-27T08:50:45;3.01;68.70
65864;SHT30;52639;51.180;20.460;2023-02-27T08:54:49;1.93;66.16
65864;SHT30;52639;51.180;20.460;2023-02-27T08:58:53;1.56;70.92
65864;SHT30;52639;51.180;20.460;2023-02-27T09:02:56;1.64;72.94
65864;SHT30;52639;51.180;20.460;2023-02-27T09:07:00;1.35;66.74
65864;SHT30;52639;51.180;20.460;2023-02-27T09:11:03;0.99;65.42
65864;SHT30;52639;51.180;20.460;2023-02-27T09:15:09;1.05;68.35
65864;SHT30;52639;51.180;20.460;2023-02-27T09:19:14;1.26;67.76
65864;SHT30;52639;51.180;20.460;2023-02-27T09:23:17;1.39;71.96
65864;SHT30;52639;51.180;20.460;2023-02-27T09:27:20;1.03;67.50
65864;SHT30;52639;51.180;20.460;2023-02-27T09:31:25;1.09;67.20
65864;SHT30;52639;51.180;20.460;2023-02-27T09:35:29;1.27;68.07
65864;SHT30;52639;51.180;20.460;2023-02-27T09:39:37;1.74;71.33
65864;SHT30;52639;51.180;20.460;2023-02-27T09:43:46;1.84;71.26
65864;SHT30;52639;51.180;20.460;2023-02-27T09:47:59;2.14;72.56
65864;SHT30;52639;51.180;20.460;2023-02-27T09:52:12;2.66;68.34
65864;SHT30;52639;51.180;20.460;2023-02-27T09:56:23;2.82;65.88
65864;SHT30;52639;51.180;20.460;2023-02-27T10:00:38;2.59;64.94
65864;SHT30;52639;51.180;20.460;2023-02-27T10:04:52;2.85;71.08
65864;SHT30;52639;51.180;20.460;2023-02-27T10:09:07;2.73;68.70
65864;SHT30;52639;51.180;20.460;2023-02-27T10:13:38;2.44;71.91
65864;SHT30;52639;51.180;20.460;2023-02-27T10:17:45;2.15;65.29
65864;SHT30;52639;51.180;20.460;2023-02-27T10:21:52;1.67;59.66
65864;SHT30;52639;51.180;20.460;2023-02-27T10:25:56;1.85;67.00
65864;SHT30;52639;51.180;20.460;2023-02-27T10:30:15;2.17;69.94
65864;SHT30;52639;51.180;20.460;2023-02-27T10:34:20;2.17;67.98
65864;SHT30;52639;51.180;20.460;2023-02-27T10:38:31;2.11;72.32
65864;SHT30;52639;51.180;20.460;2023-02-27T10:42:36;2.15;71.33
65864;SHT30;52639;51.180;20.460;2023-02-27T10:46:40;2.14;68.65
65864;SHT30;52639;51.180;20.460;2023-02-27T10:50:47;1.68;67.87
65864;SHT30;52639;51.180;20.460;2023-02-27T10:54:53;1.68;68.79
65864;SHT30;52639;51.180;20.460;2023-02-27T10:59:09;1.61;73.06
65864;SHT30;52639;51.180;20.460;2023-02-27T11:03:21;1.44;70.30
65864;SHT30;52639;51.180;20.460;2023-02-27T11:07:28;1.20;72.99
65864;SHT30;52639;51.180;20.460;2023-02-27T11:11:35;1.02;73.74
65864;SHT30;52639;51.180;20.460;2023-02-27T11:15:38;0.89;72.43
65864;SHT30;52639;51.180;20.460;2023-02-27T11:19:41;0.89;71.34
65864;SHT30;52639;51.180;20.460;2023-02-27T11:23:56;0.89;72.65
65864;SHT30;52639;51.180;20.460;2023-02-27T11:28:21;0.95;73.76
65864;SHT30;52639;51.180;20.460;2023-02-27T11:32:36;1.02;74.80
65864;SHT30;52639;51.180;20.460;2023-02-27T11:36:44;0.91;70.26
65864;SHT30;52639;51.180;20.460;2023-02-27T11:40:51;0.91;67.67
65864;SHT30;52639;51.180;20.460;2023-02-27T11:44:59;0.93;71.26
65864;SHT30;52639;51.180;20.460;2023-02-27T11:49:12;1.02;71.87
65864;SHT30;52639;51.180;20.460;2023-02-27T11:58:01;1.32;72.70
65864;SHT30;52639;51.180;20.460;2023-02-27T12:02:16;1.50;72.03
65864;SHT30;52639;51.180;20.460;2023-02-27T12:06:24;1.53;70.74
65864;SHT30;52639;51.180;20.460;2023-02-27T12:10:31;1.57;69.21
65864;SHT30;52639;51.180;20.460;2023-02-27T12:14:43;1.53;69.35
65864;SHT30;52639;51.180;20.460;2023-02-27T12:18:52;1.37;69.83
65864;SHT30;52639;51.180;20.460;2023-02-27T12:22:56;1.43;71.52
65864;SHT30;52639;51.180;20.460;2023-02-27T12:27:10;1.43;71.86
65864;SHT30;52639;51.180;20.460;2023-02-27T12:31:44;1.44;74.19
65864;SHT30;52639;51.180;20.460;2023-02-27T12:35:54;1.32;70.82
65864;SHT30;52639;51.180;20.460;2023-02-27T12:39:59;1.30;73.32
65864;SHT30;52639;51.180;20.460;2023-02-27T12:44:15;1.27;68.44
65864;SHT30;52639;51.180;20.460;2023-02-27T12:48:29;1.17;69.86
65864;SHT30;52639;51.180;20.460;2023-02-27T12:52:44;1.43;71.19
65864;SHT30;52639;51.180;20.460;2023-02-27T12:57:05;1.46;70.04
65864;SHT30;52639;51.180;20.460;2023-02-27T13:01:20;1.88;70.57
65864;SHT30;52639;51.180;20.460;2023-02-27T13:05:44;2.05;70.69
65864;SHT30;52639;51.180;20.460;2023-02-27T13:09:52;2.00;67.61
65864;SHT30;52639;51.180;20.460;2023-02-27T13:13:58;2.00;64.55
65864;SHT30;52639;51.180;20.460;2023-02-27T13:18:07;2.01;66.26
65864;SHT30;52639;51.180;20.460;2023-02-27T13:22:16;2.21;66.67
65864;SHT30;52639;51.180;20.460;2023-02-27T13:26:29;2.28;67.92
65864;SHT30;52639;51.180;20.460;2023-02-27T13:30:37;2.18;68.63
65864;SHT30;52639;51.180;20.460;2023-02-27T13:34:43;2.25;70.12
65864;SHT30;52639;51.180;20.460;2023-02-27T13:38:49;2.22;69.50
65864;SHT30;52639;51.180;20.460;2023-02-27T13:43:01;2.14;65.69
65864;SHT30;52639;51.180;20.460;2023-02-27T13:47:38;1.82;68.20
65864;SHT30;52639;51.180;20.460;2023-02-27T13:51:45;1.59;65.86
65864;SHT30;52639;51.180;20.460;2023-02-27T13:55:52;1.75;69.99
65864;SHT30;52639;51.180;20.460;2023-02-27T14:00:03;1.94;69.56
65864;SHT30;52639;51.180;20.460;2023-02-27T14:04:16;1.66;66.90
65864;SHT30;52639;51.180;20.460;2023-02-27T14:08:22;1.64;66.79
65864;SHT30;52639;51.180;20.460;2023-02-27T14:12:27;1.63;63.53
65864;SHT30;52639;51.180;20.460;2023-02-27T14:16:54;1.33;66.66
65864;SHT30;52639;51.180;20.460;2023-02-27T14:20:58;1.36;61.79
65864;SHT30;52639;51.180;20.460;2023-02-27T14:25:04;1.40;68.14
65864;SHT30;52639;51.180;20.460;2023-02-27T14:29:19;1.29;64.84
65864;SHT30;52639;51.180;20.460;2023-02-27T14:33:26;1.35;65.36
65864;SHT30;52639;51.180;20.460;2023-02-27T14:37:32;1.33;67.05
65864;SHT30;52639;51.180;20.460;2023-02-27T14:41:42;1.35;69.10
65864;SHT30;52639;51.180;20.460;2023-02-27T14:45:49;1.36;69.83
65864;SHT30;52639;51.180;20.460;2023-02-27T14:49:53;1.25;68.71
65864;SHT30;52639;51.180;20.460;2023-02-27T14:54:05;1.29;71.10
65864;SHT30;52639;51.180;20.460;2023-02-27T14:58:15;1.19;71.55
65864;SHT30;52639;51.180;20.460;2023-02-27T15:02:22;1.15;69.32
65864;SHT30;52639;51.180;20.460;2023-02-27T15:06:32;1.07;69.23
65864;SHT30;52639;51.180;20.460;2023-02-27T15:10:36;0.99;69.86
65864;SHT30;52639;51.180;20.460;2023-02-27T15:14:46;0.92;71.24
65864;SHT30;52639;51.180;20.460;2023-02-27T15:18:53;0.83;70.47
65864;SHT30;52639;51.180;20.460;2023-02-27T15:23:00;0.78;71.41
65864;SHT30;52639;51.180;20.460;2023-02-27T15:27:04;0.75;72.25
65864;SHT30;52639;51.180;20.460;2023-02-27T15:31:11;0.66;71.97
65864;SHT30;52639;51.180;20.460;2023-02-27T15:35:17;0.61;70.29
65864;SHT30;52639;51.180;20.460;2023-02-27T15:39:23;0.52;72.54
65864;SHT30;52639;51.180;20.460;2023-02-27T15:43:28;0.42;72.21
65864;SHT30;52639;51.180;20.460;2023-02-27T15:47:34;0.38;72.63
65864;SHT30;52639;51.180;20.460;2023-02-27T15:51:38;0.28;73.29
65864;SHT30;52639;51.180;20.460;2023-02-27T15:55:46;0.27;70.11
65864;SHT30;52639;51.180;20.460;2023-02-27T15:59:51;0.22;69.54
65864;SHT30;52639;51.180;20.460;2023-02-27T16:03:58;0.18;69.82
65864;SHT30;52639;51.180;20.460;2023-02-27T16:08:02;0.13;70.58
65864;SHT30;52639;51.180;20.460;2023-02-27T16:12:18;0.10;70.74
65864;SHT30;52639;51.180;20.460;2023-02-27T16:16:26;0.01;72.06
65864;SHT30;52639;51.180;20.460;2023-02-27T16:20:40;0.03;72.11
65864;SHT30;52639;51.180;20.460;2023-02-27T16:24:46;0.06;69.73
65864;SHT30;52639;51.180;20.460;2023-02-27T16:28:53;0.04;68.50
65864;SHT30;52639;51.180;20.460;2023-02-27T16:32:59;0.01;69.76
65864;SHT30;52639;51.180;20.460;2023-02-27T16:37:04;-0.04;70.55
65864;SHT30;52639;51.180;20.460;2023-02-27T16:41:10;-0.11;72.20
65864;SHT30;52639;51.180;20.460;2023-02-27T16:45:16;-0.11;68.75
65864;SHT30;52639;51.180;20.460;2023-02-27T16:49:25;-0.26;67.90
65864;SHT30;52639;51.180;20.460;2023-02-27T16:53:32;-0.37;68.49
65864;SHT30;52639;51.180;20.460;2023-02-27T16:57:40;-0.47;69.67
65864;SHT30;52639;51.180;20.460;2023-02-27T17:01:48;-0.56;69.09
65864;SHT30;52639;51.180;20.460;2023-02-27T17:05:52;-0.61;68.74
65864;SHT30;52639;51.180;20.460;2023-02-27T17:09:59;-0.64;69.34
65864;SHT30;52639;51.180;20.460;2023-02-27T17:14:03;-0.72;70.31
65864;SHT30;52639;51.180;20.460;2023-02-27T17:18:07;-0.77;69.96
65864;SHT30;52639;51.180;20.460;2023-02-27T17:22:12;-0.78;68.42
65864;SHT30;52639;51.180;20.460;2023-02-27T17:26:18;-0.82;69.81
65864;SHT30;52639;51.180;20.460;2023-02-27T17:30:23;-0.85;70.02
65864;SHT30;52639;51.180;20.460;2023-02-27T17:34:28;-0.84;69.07
65864;SHT30;52639;51.180;20.460;2023-02-27T17:38:32;-0.87;68.23
65864;SHT30;52639;51.180;20.460;2023-02-27T17:42:37;-0.88;68.19
65864;SHT30;52639;51.180;20.460;2023-02-27T17:46:42;-0.91;68.24
65864;SHT30;52639;51.180;20.460;2023-02-27T17:50:50;-0.89;67.79
65864;SHT30;52639;51.180;20.460;2023-02-27T17:54:56;-0.93;68.23
65864;SHT30;52639;51.180;20.460;2023-02-27T17:59:01;-0.96;69.55
65864;SHT30;52639;51.180;20.460;2023-02-27T18:03:05;-0.96;67.74
65864;SHT30;52639;51.180;20.460;2023-02-27T18:07:11;-0.99;68.45
65864;SHT30;52639;51.180;20.460;2023-02-27T18:11:19;-1.03;69.40
65864;SHT30;52639;51.180;20.460;2023-02-27T18:15:29;-1.06;67.05
65864;SHT30;52639;51.180;20.460;2023-02-27T18:19:37;-1.08;69.05
65864;SHT30;52639;51.180;20.460;2023-02-27T18:23:45;-1.11;68.37
65864;SHT30;52639;51.180;20.460;2023-02-27T18:27:49;-1.15;70.02
65864;SHT30;52639;51.180;20.460;2023-02-27T18:31:55;-1.17;70.71
65864;SHT30;52639;51.180;20.460;2023-02-27T18:36:05;-1.19;69.19
65864;SHT30;52639;51.180;20.460;2023-02-27T18:40:13;-1.22;70.16
65864;SHT30;52639;51.180;20.460;2023-02-27T18:44:18;-1.29;69.00
65864;SHT30;52639;51.180;20.460;2023-02-27T18:48:23;-1.29;70.22
65864;SHT30;52639;51.180;20.460;2023-02-27T18:52:35;-1.33;71.22
65864;SHT30;52639;51.180;20.460;2023-02-27T18:56:58;-1.31;69.86
65864;SHT30;52639;51.180;20.460;2023-02-27T19:01:02;-1.36;68.67
65864;SHT30;52639;51.180;20.460;2023-02-27T19:05:17;-1.44;70.14
65864;SHT30;52639;51.180;20.460;2023-02-27T19:09:23;-1.54;70.97
65864;SHT30;52639;51.180;20.460;2023-02-27T19:13:37;-1.62;71.23
65864;SHT30;52639;51.180;20.460;2023-02-27T19:18:00;-1.73;71.94
65864;SHT30;52639;51.180;20.460;2023-02-27T19:22:07;-1.71;71.59
65864;SHT30;52639;51.180;20.460;2023-02-27T19:26:10;-1.83;71.87
65864;SHT30;52639;51.180;20.460;2023-02-27T19:30:20;-2.04;72.98
65864;SHT30;52639;51.180;20.460;2023-02-27T19:34:28;-2.15;73.30
65864;SHT30;52639;51.180;20.460;2023-02-27T19:38:35;-2.51;73.92
65864;SHT30;52639;51.180;20.460;2023-02-27T19:42:41;-2.66;74.89
65864;SHT30;52639;51.180;20.460;2023-02-27T19:46:50;-2.85;75.30
65864;SHT30;52639;51.180;20.460;2023-02-27T19:50:55;-2.97;75.41
65864;SHT30;52639;51.180;20.460;2023-02-27T19:55:01;-3.14;75.78
65864;SHT30;52639;51.180;20.460;2023-02-27T19:59:08;-3.27;76.85
65864;SHT30;52639;51.180;20.460;2023-02-27T20:03:15;-3.44;76.71
65864;SHT30;52639;51.180;20.460;2023-02-27T20:07:21;-3.61;76.96
65864;SHT30;52639;51.180;20.460;2023-02-27T20:11:34;-3.84;77.28
65864;SHT30;52639;51.180;20.460;2023-02-27T20:15:39;-4.28;77.26
65864;SHT30;52639;51.180;20.460;2023-02-27T20:19:47;-4.59;78.34
65864;SHT30;52639;51.180;20.460;2023-02-27T20:23:51;-4.64;79.11
65864;SHT30;52639;51.180;20.460;2023-02-27T20:27:56;-4.66;79.48
65864;SHT30;52639;51.180;20.460;2023-02-27T20:32:00;-4.76;79.18
65864;SHT30;52639;51.180;20.460;2023-02-27T20:36:09;-4.84;79.29
65864;SHT30;52639;51.180;20.460;2023-02-27T20:40:15;-4.88;79.49
65864;SHT30;52639;51.180;20.460;2023-02-27T20:44:22;-4.98;79.59
65864;SHT30;52639;51.180;20.460;2023-02-27T20:48:27;-5.28;79.49
65864;SHT30;52639;51.180;20.460;2023-02-27T20:52:34;-5.34;79.93
65864;SHT30;52639;51.180;20.460;2023-02-27T20:56:39;-5.51;80.00
65864;SHT30;52639;51.180;20.460;2023-02-27T21:00:45;-5.58;80.61
65864;SHT30;52639;51.180;20.460;2023-02-27T21:04:52;-5.66;80.38
65864;SHT30;52639;51.180;20.460;2023-02-27T21:09:03;-5.76;81.06
65864;SHT30;52639;51.180;20.460;2023-02-27T21:13:06;-5.66;81.08
65864;SHT30;52639;51.180;20.460;2023-02-27T21:17:11;-5.89;80.92
65864;SHT30;52639;51.180;20.460;2023-02-27T21:21:16;-5.97;81.23
65864;SHT30;52639;51.180;20.460;2023-02-27T21:25:23;-6.09;81.20
65864;SHT30;52639;51.180;20.460;2023-02-27T21:29:26;-6.21;81.50
65864;SHT30;52639;51.180;20.460;2023-02-27T21:33:29;-6.21;82.07
65864;SHT30;52639;51.180;20.460;2023-02-27T21:37:32;-6.11;81.90
65864;SHT30;52639;51.180;20.460;2023-02-27T21:41:37;-6.06;82.11
65864;SHT30;52639;51.180;20.460;2023-02-27T21:45:40;-5.96;82.43
65864;SHT30;52639;51.180;20.460;2023-02-27T21:49:47;-6.00;82.05
65864;SHT30;52639;51.180;20.460;2023-02-27T21:53:54;-6.20;82.18
65864;SHT30;52639;51.180;20.460;2023-02-27T21:57:59;-6.28;82.11
65864;SHT30;52639;51.180;20.460;2023-02-27T22:02:02;-6.27;83.19
65864;SHT30;52639;51.180;20.460;2023-02-27T22:06:05;-6.21;83.93
65864;SHT30;52639;51.180;20.460;2023-02-27T22:10:09;-6.25;82.87
65864;SHT30;52639;51.180;20.460;2023-02-27T22:14:14;-6.24;84.33
65864;SHT30;52639;51.180;20.460;2023-02-27T22:18:17;-6.21;84.71
65864;SHT30;52639;51.180;20.460;2023-02-27T22:22:20;-6.28;83.71
65864;SHT30;52639;51.180;20.460;2023-02-27T22:26:25;-6.14;84.17
65864;SHT30;52639;51.180;20.460;2023-02-27T22:30:33;-6.06;83.94
65864;SHT30;52639;51.180;20.460;2023-02-27T22:34:36;-6.09;83.43
65864;SHT30;52639;51.180;20.460;2023-02-27T22:38:39;-6.07;84.38
65864;SHT30;52639;51.180;20.460;2023-02-27T22:42:42;-5.97;84.28
65864;SHT30;52639;51.180;20.460;2023-02-27T22:46:48;-5.99;83.61
65864;SHT30;52639;51.180;20.460;2023-02-27T22:50:56;-6.03;83.22
65864;SHT30;52639;51.180;20.460;2023-02-27T22:54:59;-6.10;84.22
65864;SHT30;52639;51.180;20.460;2023-02-27T22:59:02;-6.18;84.55
65864;SHT30;52639;51.180;20.460;2023-02-27T23:03:06;-6.24;84.97
65864;SHT30;52639;51.180;20.460;2023-02-27T23:07:09;-6.33;84.75
65864;SHT30;52639;51.180;20.460;2023-02-27T23:11:13;-6.31;84.28
65864;SHT30;52639;51.180;20.460;2023-02-27T23:15:16;-6.62;84.00
65864;SHT30;52639;51.180;20.460;2023-02-27T23:19:21;-6.75;84.09
65864;SHT30;52639;51.180;20.460;2023-02-27T23:23:24;-6.79;85.02
65864;SHT30;52639;51.180;20.460;2023-02-27T23:27:26;-6.74;85.93
65864;SHT30;52639;51.180;20.460;2023-02-27T23:31:29;-6.67;85.84
65864;SHT30;52639;51.180;20.460;2023-02-27T23:35:33;-6.61;85.12
65864;SHT30;52639;51.180;20.460;2023-02-27T23:39:36;-6.68;85.08
65864;SHT30;52639;51.180;20.460;2023-02-27T23:43:39;-6.74;85.44
65864;SHT30;52639;51.180;20.460;2023-02-27T23:47:42;-6.88;84.81
65864;SHT30;52639;51.180;20.460;2023-02-27T23:51:46;-7.06;85.64
65864;SHT30;52639;51.180;20.460;2023-02-27T23:55:49;-7.03;85.29
65864;SHT30;52639;51.180;20.460;2023-02-27T23:59:52;-7.13;86.19
